FMMIFMNM

Guest
Details From FMMI - IVATO
To FMNM - PHILIBERT TSIRANANA
Flight Number -
Tags generated
Created
Modified
Stats Distance 200 nm / 370 km
Max Altitude 20,900 ft / 6,370 m
Waypoints 4
Social Downloads 0
Likes 0
Share VATSIM

Download

Looking for another format? Having issues loading an existing format? Contact us
Advertisement - Login to hide

Notes

Basic altitude profile: - Ascent Rate: 2500ft/min - Ascent Speed: 250kts - Cruise Altitude: 35000ft - Cruise Speed: 420kts - Descent Rate: 1500ft/min - Descent Speed: 250kts Options: - Use NATs: yes - Use PACOTS: yes - Use low airways: yes - Use high airways: yes

Route

FMMI DIRBA A401F UVGAD FMNM

ID Type Via Altitude Latitude Longitude Leg Dist Tot Dist Heading (true) Name
O FMMI APT - 0 ft / 0 m -18.79695˚ 47.47881˚ - 0 nm - IVATO
DIRBA FIX - 20,900 ft / 6,370 m -17.93000˚ 47.00000˚ 58 nm 58 nm 332° / 332° -
UVGAD FIX A401F (AWY-LO) 10,600 ft / 3,231 m -16.46306˚ 46.57250˚ 91 nm 150 nm 344° / 345° -
O FMNM APT - 0 ft / 0 m -15.66714˚ 46.35183˚ 49 nm 199 nm 345° / 345° PHILIBERT TSIRANANA

Altitude Profile

Advertisement - Login to hide

Weather


0- 5 10 15 20 25 30 35+ Temperature / ° C

Clouds and Precipitation
Forecast for 2017-12-13 00:00 UTC. Updated an hour ago

Ground ~20,000 ft ~40,000 ft Winds

FMMI

Details ICAO FMMI (TNR)
Name IVATO
Region Comoros, Mayotte, Réunion and Madagascar
Timezone Indian/Antananarivo (UTC+3.0)
Stats Elevation 4,198 ft / 1,280 m (AMSL)
Location -18.796950° 47.478806°
Runways 1
Magnetic Variation 15.160° W

METAR

FMMI 122000Z 08004KT 9999 FEW017CB 19/18 Q1022 NOSIG

Decode

TAF

TAF FMMI 121700Z 1218/1324 08008KT 9999 FEW007 SCT017CB BKN020 TEMPO 1218/1305 4000 SHRA TEMPO 1218/1222 TS PROB30 TEMPO 1309/1324 4000 TSRA

Decode

Departure Runways

ID Width Length Bearing (true) Bearing (mag) Surface Threshold Offset Overrun Length
11 148 ft / 45 m 10,167 ft / 3,099 m 98.92° 114.08° Asphalt 0 ft / 0 m 90 ft / 27 m
29 148 ft / 45 m 10,167 ft / 3,099 m 278.91° 294.07° Asphalt 0 ft / 0 m 90 ft / 27 m

FMNM

Details ICAO FMNM (MJN)
Name PHILIBERT TSIRANANA
Region Comoros, Mayotte, Réunion and Madagascar
Timezone Indian/Antananarivo (UTC+3.0)
Stats Elevation 87 ft / 27 m (AMSL)
Location -15.667144° 46.351829°
Runways 1
Magnetic Variation 11.235° W

METAR

FMNM 122000Z 23004KT 9999 FEW020CB 28/25 Q1012

Decode

TAF

Not found

Destination Runways

ID Width Length Bearing (true) Bearing (mag) Surface Threshold Offset Overrun Length
14 148 ft / 45 m 7,235 ft / 2,205 m 132.37° 143.60° Asphalt 0 ft / 0 m 98 ft / 30 m
32 148 ft / 45 m 7,235 ft / 2,205 m 312.37° 323.60° Asphalt 0 ft / 0 m 98 ft / 30 m

Popular Alternatives